sensor_id;sensor_type;location;lat;lon;timestamp;P1;durP1;ratioP1;P2;durP2;ratioP2
61911;SDS011;49973;52.084;5.412;2023-05-19T00:01:02;10.23;;;3.03;;
61911;SDS011;49973;52.084;5.412;2023-05-19T00:03:31;11.17;;;3.77;;
61911;SDS011;49973;52.084;5.412;2023-05-19T00:06:01;5.20;;;2.97;;
61911;SDS011;49973;52.084;5.412;2023-05-19T00:08:31;10.67;;;2.73;;
61911;SDS011;49973;52.084;5.412;2023-05-19T00:11:01;3.73;;;2.83;;
61911;SDS011;49973;52.084;5.412;2023-05-19T00:13:30;5.43;;;2.80;;
61911;SDS011;49973;52.084;5.412;2023-05-19T00:16:01;12.03;;;3.20;;
61911;SDS011;49973;52.084;5.412;2023-05-19T00:18:30;5.40;;;2.60;;
61911;SDS011;49973;52.084;5.412;2023-05-19T00:20:59;8.70;;;2.90;;
61911;SDS011;49973;52.084;5.412;2023-05-19T00:23:27;10.60;;;3.33;;
61911;SDS011;49973;52.084;5.412;2023-05-19T00:25:56;5.53;;;2.90;;
61911;SDS011;49973;52.084;5.412;2023-05-19T00:28:24;9.97;;;3.13;;
61911;SDS011;49973;52.084;5.412;2023-05-19T00:30:53;6.03;;;2.97;;
61911;SDS011;49973;52.084;5.412;2023-05-19T00:33:23;11.30;;;3.50;;
61911;SDS011;49973;52.084;5.412;2023-05-19T00:35:52;6.13;;;3.30;;
61911;SDS011;49973;52.084;5.412;2023-05-19T00:38:21;12.90;;;3.03;;
61911;SDS011;49973;52.084;5.412;2023-05-19T00:40:49;5.10;;;3.03;;
61911;SDS011;49973;52.084;5.412;2023-05-19T00:43:18;4.50;;;2.70;;
61911;SDS011;49973;52.084;5.412;2023-05-19T00:45:47;8.03;;;3.83;;
61911;SDS011;49973;52.084;5.412;2023-05-19T00:48:15;4.70;;;2.97;;
61911;SDS011;49973;52.084;5.412;2023-05-19T00:50:45;6.73;;;4.07;;
61911;SDS011;49973;52.084;5.412;2023-05-19T00:53:15;14.07;;;3.33;;
61911;SDS011;49973;52.084;5.412;2023-05-19T00:55:45;9.10;;;3.00;;
61911;SDS011;49973;52.084;5.412;2023-05-19T00:58:14;7.23;;;3.17;;
61911;SDS011;49973;52.084;5.412;2023-05-19T01:00:44;9.67;;;3.37;;
61911;SDS011;49973;52.084;5.412;2023-05-19T01:03:12;6.73;;;3.03;;
61911;SDS011;49973;52.084;5.412;2023-05-19T01:05:48;7.93;;;3.60;;
61911;SDS011;49973;52.084;5.412;2023-05-19T01:08:19;11.13;;;3.27;;
61911;SDS011;49973;52.084;5.412;2023-05-19T01:10:47;5.93;;;3.50;;
61911;SDS011;49973;52.084;5.412;2023-05-19T01:13:16;8.80;;;3.60;;
61911;SDS011;49973;52.084;5.412;2023-05-19T01:15:55;6.87;;;3.30;;
61911;SDS011;49973;52.084;5.412;2023-05-19T01:18:31;9.13;;;3.13;;
61911;SDS011;49973;52.084;5.412;2023-05-19T01:21:20;9.53;;;3.87;;
61911;SDS011;49973;52.084;5.412;2023-05-19T01:24:07;10.40;;;3.13;;
61911;SDS011;49973;52.084;5.412;2023-05-19T01:29:55;15.60;;;4.10;;
61911;SDS011;49973;52.084;5.412;2023-05-19T01:32:42;9.97;;;3.37;;
61911;SDS011;49973;52.084;5.412;2023-05-19T01:35:12;6.97;;;3.40;;
61911;SDS011;49973;52.084;5.412;2023-05-19T01:37:42;5.77;;;3.07;;
61911;SDS011;49973;52.084;5.412;2023-05-19T01:40:12;8.97;;;3.40;;
61911;SDS011;49973;52.084;5.412;2023-05-19T01:42:40;5.73;;;3.87;;
61911;SDS011;49973;52.084;5.412;2023-05-19T01:45:12;11.10;;;3.80;;
61911;SDS011;49973;52.084;5.412;2023-05-19T01:47:42;7.10;;;3.37;;
61911;SDS011;49973;52.084;5.412;2023-05-19T01:50:20;5.03;;;3.20;;
61911;SDS011;49973;52.084;5.412;2023-05-19T01:52:48;6.93;;;3.47;;
61911;SDS011;49973;52.084;5.412;2023-05-19T01:55:17;8.23;;;3.03;;
61911;SDS011;49973;52.084;5.412;2023-05-19T01:57:50;12.60;;;4.30;;
61911;SDS011;49973;52.084;5.412;2023-05-19T02:00:30;8.47;;;3.83;;
61911;SDS011;49973;52.084;5.412;2023-05-19T02:03:12;6.83;;;3.17;;
61911;SDS011;49973;52.084;5.412;2023-05-19T02:05:51;7.10;;;3.73;;
61911;SDS011;49973;52.084;5.412;2023-05-19T02:08:27;6.77;;;3.23;;
61911;SDS011;49973;52.084;5.412;2023-05-19T02:11:01;7.53;;;4.17;;
61911;SDS011;49973;52.084;5.412;2023-05-19T02:13:36;16.83;;;4.50;;
61911;SDS011;49973;52.084;5.412;2023-05-19T02:16:07;6.10;;;3.20;;
61911;SDS011;49973;52.084;5.412;2023-05-19T02:18:40;6.87;;;3.80;;
61911;SDS011;49973;52.084;5.412;2023-05-19T02:21:11;9.83;;;4.60;;
61911;SDS011;49973;52.084;5.412;2023-05-19T02:23:40;9.47;;;3.67;;
61911;SDS011;49973;52.084;5.412;2023-05-19T02:26:09;11.13;;;4.03;;
61911;SDS011;49973;52.084;5.412;2023-05-19T02:28:37;10.17;;;3.70;;
61911;SDS011;49973;52.084;5.412;2023-05-19T02:31:07;10.37;;;4.37;;
61911;SDS011;49973;52.084;5.412;2023-05-19T02:33:36;17.00;;;5.00;;
61911;SDS011;49973;52.084;5.412;2023-05-19T02:36:04;9.07;;;4.00;;
61911;SDS011;49973;52.084;5.412;2023-05-19T02:38:34;10.07;;;4.10;;
61911;SDS011;49973;52.084;5.412;2023-05-19T02:41:03;7.53;;;3.90;;
61911;SDS011;49973;52.084;5.412;2023-05-19T02:43:32;8.13;;;3.70;;
61911;SDS011;49973;52.084;5.412;2023-05-19T02:46:01;5.93;;;3.73;;
61911;SDS011;49973;52.084;5.412;2023-05-19T02:48:31;10.50;;;3.93;;
61911;SDS011;49973;52.084;5.412;2023-05-19T02:50:59;9.83;;;4.30;;
61911;SDS011;49973;52.084;5.412;2023-05-19T02:53:29;15.27;;;4.40;;
61911;SDS011;49973;52.084;5.412;2023-05-19T02:55:58;8.57;;;3.53;;
61911;SDS011;49973;52.084;5.412;2023-05-19T02:58:27;8.23;;;3.53;;
61911;SDS011;49973;52.084;5.412;2023-05-19T03:00:56;8.60;;;3.50;;
61911;SDS011;49973;52.084;5.412;2023-05-19T03:03:25;12.37;;;4.17;;
61911;SDS011;49973;52.084;5.412;2023-05-19T03:05:56;12.37;;;3.80;;
61911;SDS011;49973;52.084;5.412;2023-05-19T03:08:24;6.20;;;4.40;;
61911;SDS011;49973;52.084;5.412;2023-05-19T03:10:53;6.40;;;3.90;;
61911;SDS011;49973;52.084;5.412;2023-05-19T03:13:22;15.13;;;4.53;;
61911;SDS011;49973;52.084;5.412;2023-05-19T03:15:50;9.97;;;4.47;;
61911;SDS011;49973;52.084;5.412;2023-05-19T03:18:19;8.90;;;3.77;;
61911;SDS011;49973;52.084;5.412;2023-05-19T03:20:50;5.37;;;3.33;;
61911;SDS011;49973;52.084;5.412;2023-05-19T03:23:21;8.70;;;4.50;;
61911;SDS011;49973;52.084;5.412;2023-05-19T03:25:49;13.10;;;4.43;;
61911;SDS011;49973;52.084;5.412;2023-05-19T03:28:20;16.87;;;4.00;;
61911;SDS011;49973;52.084;5.412;2023-05-19T03:30:49;10.83;;;4.10;;
61911;SDS011;49973;52.084;5.412;2023-05-19T03:33:21;9.53;;;4.53;;
61911;SDS011;49973;52.084;5.412;2023-05-19T03:35:51;10.47;;;4.43;;
61911;SDS011;49973;52.084;5.412;2023-05-19T03:38:22;11.97;;;3.90;;
61911;SDS011;49973;52.084;5.412;2023-05-19T03:40:56;11.43;;;4.53;;
61911;SDS011;49973;52.084;5.412;2023-05-19T03:43:24;13.50;;;4.17;;
61911;SDS011;49973;52.084;5.412;2023-05-19T03:45:57;10.23;;;3.97;;
61911;SDS011;49973;52.084;5.412;2023-05-19T03:48:52;15.93;;;4.20;;
61911;SDS011;49973;52.084;5.412;2023-05-19T03:51:23;13.83;;;4.47;;
61911;SDS011;49973;52.084;5.412;2023-05-19T03:53:58;12.50;;;4.40;;
61911;SDS011;49973;52.084;5.412;2023-05-19T03:56:27;10.97;;;5.17;;
61911;SDS011;49973;52.084;5.412;2023-05-19T03:58:56;7.60;;;4.07;;
61911;SDS011;49973;52.084;5.412;2023-05-19T04:01:25;9.17;;;4.00;;
61911;SDS011;49973;52.084;5.412;2023-05-19T04:03:53;9.57;;;3.80;;
61911;SDS011;49973;52.084;5.412;2023-05-19T04:06:22;7.50;;;4.13;;
61911;SDS011;49973;52.084;5.412;2023-05-19T04:08:53;6.97;;;3.90;;
61911;SDS011;49973;52.084;5.412;2023-05-19T04:11:23;10.37;;;4.37;;
61911;SDS011;49973;52.084;5.412;2023-05-19T04:13:51;11.00;;;4.33;;
61911;SDS011;49973;52.084;5.412;2023-05-19T04:16:20;8.77;;;4.60;;
61911;SDS011;49973;52.084;5.412;2023-05-19T04:18:49;9.13;;;4.60;;
61911;SDS011;49973;52.084;5.412;2023-05-19T04:21:17;7.17;;;4.40;;
61911;SDS011;49973;52.084;5.412;2023-05-19T04:23:48;14.43;;;4.73;;
61911;SDS011;49973;52.084;5.412;2023-05-19T04:26:16;14.27;;;5.17;;
61911;SDS011;49973;52.084;5.412;2023-05-19T04:28:49;9.90;;;4.60;;
61911;SDS011;49973;52.084;5.412;2023-05-19T04:31:17;10.43;;;4.23;;
61911;SDS011;49973;52.084;5.412;2023-05-19T04:33:47;14.73;;;4.50;;
61911;SDS011;49973;52.084;5.412;2023-05-19T04:36:16;8.83;;;4.80;;
61911;SDS011;49973;52.084;5.412;2023-05-19T04:38:49;13.97;;;4.60;;
61911;SDS011;49973;52.084;5.412;2023-05-19T04:41:23;6.07;;;3.63;;
61911;SDS011;49973;52.084;5.412;2023-05-19T04:43:54;10.63;;;4.70;;
61911;SDS011;49973;52.084;5.412;2023-05-19T04:46:23;9.50;;;4.17;;
61911;SDS011;49973;52.084;5.412;2023-05-19T04:48:56;9.70;;;4.27;;
61911;SDS011;49973;52.084;5.412;2023-05-19T04:51:27;9.50;;;5.17;;
61911;SDS011;49973;52.084;5.412;2023-05-19T04:53:59;12.50;;;4.83;;
61911;SDS011;49973;52.084;5.412;2023-05-19T04:56:28;8.83;;;4.33;;
61911;SDS011;49973;52.084;5.412;2023-05-19T04:58:58;6.03;;;4.10;;
61911;SDS011;49973;52.084;5.412;2023-05-19T05:01:27;9.33;;;4.40;;
61911;SDS011;49973;52.084;5.412;2023-05-19T05:03:57;10.60;;;4.47;;
61911;SDS011;49973;52.084;5.412;2023-05-19T05:06:28;7.67;;;4.27;;
61911;SDS011;49973;52.084;5.412;2023-05-19T05:08:57;13.43;;;3.77;;
61911;SDS011;49973;52.084;5.412;2023-05-19T05:11:27;10.10;;;4.47;;
61911;SDS011;49973;52.084;5.412;2023-05-19T05:13:56;11.13;;;5.50;;
61911;SDS011;49973;52.084;5.412;2023-05-19T05:16:29;9.07;;;4.30;;
61911;SDS011;49973;52.084;5.412;2023-05-19T05:18:59;15.13;;;5.10;;
61911;SDS011;49973;52.084;5.412;2023-05-19T05:21:28;11.57;;;4.27;;
61911;SDS011;49973;52.084;5.412;2023-05-19T05:23:59;13.60;;;4.23;;
61911;SDS011;49973;52.084;5.412;2023-05-19T05:26:31;10.40;;;4.77;;
61911;SDS011;49973;52.084;5.412;2023-05-19T05:29:01;8.10;;;4.37;;
61911;SDS011;49973;52.084;5.412;2023-05-19T05:31:31;12.27;;;4.40;;
61911;SDS011;49973;52.084;5.412;2023-05-19T05:34:01;10.57;;;4.73;;
61911;SDS011;49973;52.084;5.412;2023-05-19T05:36:31;13.20;;;5.17;;
61911;SDS011;49973;52.084;5.412;2023-05-19T05:39:01;12.97;;;5.27;;
61911;SDS011;49973;52.084;5.412;2023-05-19T05:41:30;10.40;;;4.53;;
61911;SDS011;49973;52.084;5.412;2023-05-19T05:44:06;10.83;;;5.17;;
61911;SDS011;49973;52.084;5.412;2023-05-19T05:46:39;13.37;;;4.90;;
61911;SDS011;49973;52.084;5.412;2023-05-19T05:49:08;7.60;;;4.67;;
61911;SDS011;49973;52.084;5.412;2023-05-19T05:51:41;10.83;;;4.60;;
61911;SDS011;49973;52.084;5.412;2023-05-19T05:54:31;17.17;;;5.23;;
61911;SDS011;49973;52.084;5.412;2023-05-19T05:57:01;8.80;;;4.57;;
61911;SDS011;49973;52.084;5.412;2023-05-19T05:59:30;9.63;;;4.10;;
61911;SDS011;49973;52.084;5.412;2023-05-19T06:02:01;8.00;;;4.13;;
61911;SDS011;49973;52.084;5.412;2023-05-19T06:04:32;6.63;;;4.60;;
61911;SDS011;49973;52.084;5.412;2023-05-19T06:07:00;9.90;;;4.37;;
61911;SDS011;49973;52.084;5.412;2023-05-19T06:09:33;6.53;;;4.10;;
61911;SDS011;49973;52.084;5.412;2023-05-19T06:12:04;9.50;;;3.80;;
61911;SDS011;49973;52.084;5.412;2023-05-19T06:14:39;9.43;;;3.80;;
61911;SDS011;49973;52.084;5.412;2023-05-19T06:17:15;12.63;;;4.57;;
61911;SDS011;49973;52.084;5.412;2023-05-19T06:19:44;11.50;;;3.93;;
61911;SDS011;49973;52.084;5.412;2023-05-19T06:22:13;5.57;;;3.60;;
61911;SDS011;49973;52.084;5.412;2023-05-19T06:24:43;6.50;;;4.10;;
61911;SDS011;49973;52.084;5.412;2023-05-19T06:27:11;9.23;;;4.67;;
61911;SDS011;49973;52.084;5.412;2023-05-19T06:29:40;6.47;;;4.13;;
61911;SDS011;49973;52.084;5.412;2023-05-19T06:32:09;14.00;;;4.00;;
61911;SDS011;49973;52.084;5.412;2023-05-19T06:34:40;7.67;;;4.23;;
61911;SDS011;49973;52.084;5.412;2023-05-19T06:37:08;7.93;;;4.57;;
61911;SDS011;49973;52.084;5.412;2023-05-19T06:39:37;6.80;;;3.83;;
61911;SDS011;49973;52.084;5.412;2023-05-19T06:42:06;11.83;;;4.63;;
61911;SDS011;49973;52.084;5.412;2023-05-19T06:44:48;9.40;;;3.93;;
61911;SDS011;49973;52.084;5.412;2023-05-19T06:47:17;9.63;;;5.03;;
61911;SDS011;49973;52.084;5.412;2023-05-19T06:49:47;10.60;;;4.47;;
61911;SDS011;49973;52.084;5.412;2023-05-19T06:52:23;11.60;;;4.63;;
61911;SDS011;49973;52.084;5.412;2023-05-19T06:54:55;13.03;;;4.73;;
61911;SDS011;49973;52.084;5.412;2023-05-19T06:57:23;8.13;;;3.83;;
61911;SDS011;49973;52.084;5.412;2023-05-19T06:59:52;8.83;;;3.60;;
61911;SDS011;49973;52.084;5.412;2023-05-19T07:02:22;10.83;;;4.60;;
61911;SDS011;49973;52.084;5.412;2023-05-19T07:04:52;10.33;;;3.87;;
61911;SDS011;49973;52.084;5.412;2023-05-19T07:07:21;9.00;;;3.83;;
61911;SDS011;49973;52.084;5.412;2023-05-19T07:09:50;6.93;;;3.70;;
61911;SDS011;49973;52.084;5.412;2023-05-19T07:12:20;8.00;;;3.20;;
61911;SDS011;49973;52.084;5.412;2023-05-19T07:14:49;8.57;;;3.13;;
61911;SDS011;49973;52.084;5.412;2023-05-19T07:17:18;8.47;;;3.33;;
61911;SDS011;49973;52.084;5.412;2023-05-19T07:19:47;10.57;;;3.50;;
61911;SDS011;49973;52.084;5.412;2023-05-19T07:22:17;16.70;;;3.03;;
61911;SDS011;49973;52.084;5.412;2023-05-19T07:24:46;9.97;;;3.23;;
61911;SDS011;49973;52.084;5.412;2023-05-19T07:27:16;17.13;;;2.87;;
61911;SDS011;49973;52.084;5.412;2023-05-19T07:29:45;6.70;;;3.03;;
61911;SDS011;49973;52.084;5.412;2023-05-19T07:32:13;5.90;;;3.20;;
61911;SDS011;49973;52.084;5.412;2023-05-19T07:34:42;7.43;;;2.87;;
61911;SDS011;49973;52.084;5.412;2023-05-19T07:37:11;8.60;;;2.90;;
61911;SDS011;49973;52.084;5.412;2023-05-19T07:39:41;7.97;;;2.93;;
61911;SDS011;49973;52.084;5.412;2023-05-19T07:42:09;8.30;;;2.80;;
61911;SDS011;49973;52.084;5.412;2023-05-19T07:44:38;6.70;;;3.40;;
61911;SDS011;49973;52.084;5.412;2023-05-19T07:47:06;7.67;;;3.30;;
61911;SDS011;49973;52.084;5.412;2023-05-19T07:49:35;5.87;;;3.20;;
61911;SDS011;49973;52.084;5.412;2023-05-19T07:52:04;9.87;;;2.90;;
61911;SDS011;49973;52.084;5.412;2023-05-19T07:54:33;8.87;;;3.00;;
61911;SDS011;49973;52.084;5.412;2023-05-19T07:57:03;5.40;;;2.60;;
61911;SDS011;49973;52.084;5.412;2023-05-19T07:59:32;7.43;;;3.23;;
61911;SDS011;49973;52.084;5.412;2023-05-19T08:02:00;12.37;;;3.00;;
61911;SDS011;49973;52.084;5.412;2023-05-19T08:04:29;7.73;;;3.30;;
61911;SDS011;49973;52.084;5.412;2023-05-19T08:06:58;9.70;;;2.77;;
61911;SDS011;49973;52.084;5.412;2023-05-19T08:09:27;7.43;;;2.50;;
61911;SDS011;49973;52.084;5.412;2023-05-19T08:11:56;10.73;;;2.97;;
61911;SDS011;49973;52.084;5.412;2023-05-19T08:14:26;4.77;;;2.30;;
61911;SDS011;49973;52.084;5.412;2023-05-19T08:16:54;5.63;;;2.13;;
61911;SDS011;49973;52.084;5.412;2023-05-19T08:19:23;8.47;;;2.53;;
61911;SDS011;49973;52.084;5.412;2023-05-19T08:21:52;5.20;;;2.20;;
61911;SDS011;49973;52.084;5.412;2023-05-19T08:24:21;4.63;;;2.07;;
61911;SDS011;49973;52.084;5.412;2023-05-19T08:26:50;7.07;;;2.33;;
61911;SDS011;49973;52.084;5.412;2023-05-19T08:29:18;17.67;;;2.83;;
61911;SDS011;49973;52.084;5.412;2023-05-19T08:31:48;3.80;;;1.87;;
61911;SDS011;49973;52.084;5.412;2023-05-19T08:34:19;7.27;;;1.80;;
61911;SDS011;49973;52.084;5.412;2023-05-19T08:36:48;3.43;;;1.50;;
61911;SDS011;49973;52.084;5.412;2023-05-19T08:39:16;10.20;;;1.90;;
61911;SDS011;49973;52.084;5.412;2023-05-19T08:41:49;6.67;;;1.63;;
61911;SDS011;49973;52.084;5.412;2023-05-19T08:44:19;5.03;;;1.27;;
61911;SDS011;49973;52.084;5.412;2023-05-19T08:46:49;7.07;;;1.63;;
61911;SDS011;49973;52.084;5.412;2023-05-19T08:49:22;2.07;;;1.40;;
61911;SDS011;49973;52.084;5.412;2023-05-19T08:51:56;9.70;;;1.53;;
61911;SDS011;49973;52.084;5.412;2023-05-19T08:54:34;2.20;;;1.70;;
61911;SDS011;49973;52.084;5.412;2023-05-19T08:57:09;3.97;;;1.50;;
61911;SDS011;49973;52.084;5.412;2023-05-19T08:59:38;4.80;;;1.40;;
61911;SDS011;49973;52.084;5.412;2023-05-19T09:02:09;5.93;;;1.87;;
61911;SDS011;49973;52.084;5.412;2023-05-19T09:04:39;8.67;;;1.63;;
61911;SDS011;49973;52.084;5.412;2023-05-19T09:07:11;7.13;;;1.13;;
61911;SDS011;49973;52.084;5.412;2023-05-19T09:09:41;3.87;;;1.50;;
61911;SDS011;49973;52.084;5.412;2023-05-19T09:12:10;11.27;;;1.83;;
61911;SDS011;49973;52.084;5.412;2023-05-19T09:14:39;2.07;;;1.10;;
61911;SDS011;49973;52.084;5.412;2023-05-19T09:17:10;3.93;;;1.40;;
61911;SDS011;49973;52.084;5.412;2023-05-19T09:19:41;7.27;;;1.50;;
61911;SDS011;49973;52.084;5.412;2023-05-19T09:22:13;4.70;;;1.30;;
61911;SDS011;49973;52.084;5.412;2023-05-19T09:24:44;5.38;;;1.48;;
61911;SDS011;49973;52.084;5.412;2023-05-19T09:27:14;4.60;;;1.45;;
61911;SDS011;49973;52.084;5.412;2023-05-19T09:29:49;6.60;;;1.45;;
61911;SDS011;49973;52.084;5.412;2023-05-19T09:32:24;6.20;;;1.52;;
61911;SDS011;49973;52.084;5.412;2023-05-19T09:34:53;2.85;;;1.48;;
61911;SDS011;49973;52.084;5.412;2023-05-19T09:37:23;10.68;;;1.60;;
61911;SDS011;49973;52.084;5.412;2023-05-19T09:39:54;6.57;;;1.80;;
61911;SDS011;49973;52.084;5.412;2023-05-19T09:42:23;8.05;;;1.67;;
61911;SDS011;49973;52.084;5.412;2023-05-19T09:44:57;6.53;;;1.80;;
61911;SDS011;49973;52.084;5.412;2023-05-19T09:47:29;3.72;;;1.48;;
61911;SDS011;49973;52.084;5.412;2023-05-19T09:50:00;9.38;;;1.90;;
61911;SDS011;49973;52.084;5.412;2023-05-19T09:52:29;4.27;;;1.60;;
61911;SDS011;49973;52.084;5.412;2023-05-19T09:54:58;4.37;;;1.70;;
61911;SDS011;49973;52.084;5.412;2023-05-19T09:57:31;6.60;;;1.73;;
61911;SDS011;49973;52.084;5.412;2023-05-19T10:00:03;7.33;;;1.73;;
61911;SDS011;49973;52.084;5.412;2023-05-19T10:02:42;3.07;;;1.70;;
61911;SDS011;49973;52.084;5.412;2023-05-19T10:05:11;5.63;;;1.53;;
61911;SDS011;49973;52.084;5.412;2023-05-19T10:07:43;2.90;;;1.63;;
61911;SDS011;49973;52.084;5.412;2023-05-19T10:10:14;5.33;;;1.93;;
61911;SDS011;49973;52.084;5.412;2023-05-19T10:12:43;7.50;;;1.57;;
61911;SDS011;49973;52.084;5.412;2023-05-19T10:15:12;7.33;;;2.10;;
61911;SDS011;49973;52.084;5.412;2023-05-19T10:17:43;7.07;;;1.90;;
61911;SDS011;49973;52.084;5.412;2023-05-19T10:20:12;6.63;;;1.97;;
61911;SDS011;49973;52.084;5.412;2023-05-19T10:22:43;7.10;;;1.70;;
61911;SDS011;49973;52.084;5.412;2023-05-19T10:25:13;9.03;;;2.17;;
61911;SDS011;49973;52.084;5.412;2023-05-19T10:27:45;4.23;;;1.57;;
61911;SDS011;49973;52.084;5.412;2023-05-19T10:30:20;2.90;;;1.50;;
61911;SDS011;49973;52.084;5.412;2023-05-19T10:32:55;5.33;;;1.50;;
61911;SDS011;49973;52.084;5.412;2023-05-19T10:35:31;3.77;;;1.60;;
61911;SDS011;49973;52.084;5.412;2023-05-19T10:38:15;3.67;;;1.52;;
61911;SDS011;49973;52.084;5.412;2023-05-19T10:40:54;1.98;;;1.23;;
61911;SDS011;49973;52.084;5.412;2023-05-19T10:43:32;6.85;;;1.38;;
61911;SDS011;49973;52.084;5.412;2023-05-19T10:46:11;3.05;;;1.60;;
61911;SDS011;49973;52.084;5.412;2023-05-19T10:48:44;5.32;;;1.90;;
61911;SDS011;49973;52.084;5.412;2023-05-19T10:51:13;6.30;;;1.38;;
61911;SDS011;49973;52.084;5.412;2023-05-19T10:53:42;4.97;;;1.55;;
61911;SDS011;49973;52.084;5.412;2023-05-19T10:56:26;4.00;;;1.80;;
61911;SDS011;49973;52.084;5.412;2023-05-19T10:58:58;2.97;;;1.52;;
61911;SDS011;49973;52.084;5.412;2023-05-19T11:01:28;5.93;;;1.83;;
61911;SDS011;49973;52.084;5.412;2023-05-19T11:04:04;7.15;;;2.00;;
61911;SDS011;49973;52.084;5.412;2023-05-19T11:06:35;5.55;;;1.85;;
61911;SDS011;49973;52.084;5.412;2023-05-19T11:09:11;6.10;;;1.30;;
61911;SDS011;49973;52.084;5.412;2023-05-19T11:11:44;5.20;;;1.50;;
61911;SDS011;49973;52.084;5.412;2023-05-19T11:14:15;3.75;;;1.50;;
61911;SDS011;49973;52.084;5.412;2023-05-19T11:16:45;5.43;;;1.60;;
61911;SDS011;49973;52.084;5.412;2023-05-19T11:19:17;6.00;;;1.40;;
61911;SDS011;49973;52.084;5.412;2023-05-19T11:21:47;3.00;;;1.42;;
61911;SDS011;49973;52.084;5.412;2023-05-19T11:24:34;3.28;;;1.50;;
61911;SDS011;49973;52.084;5.412;2023-05-19T11:27:20;3.60;;;1.73;;
61911;SDS011;49973;52.084;5.412;2023-05-19T11:29:52;5.68;;;1.80;;
61911;SDS011;49973;52.084;5.412;2023-05-19T11:32:23;6.05;;;1.35;;
61911;SDS011;49973;52.084;5.412;2023-05-19T11:34:55;5.78;;;1.80;;
61911;SDS011;49973;52.084;5.412;2023-05-19T11:37:24;4.10;;;1.92;;
61911;SDS011;49973;52.084;5.412;2023-05-19T11:39:54;3.53;;;1.27;;
61911;SDS011;49973;52.084;5.412;2023-05-19T11:42:23;7.03;;;1.65;;
61911;SDS011;49973;52.084;5.412;2023-05-19T11:44:53;6.53;;;1.35;;
61911;SDS011;49973;52.084;5.412;2023-05-19T11:47:22;6.60;;;1.83;;
61911;SDS011;49973;52.084;5.412;2023-05-19T11:49:51;4.28;;;1.40;;
61911;SDS011;49973;52.084;5.412;2023-05-19T11:52:23;2.40;;;1.45;;
61911;SDS011;49973;52.084;5.412;2023-05-19T11:54:53;4.57;;;1.45;;
61911;SDS011;49973;52.084;5.412;2023-05-19T11:57:22;4.85;;;1.55;;
61911;SDS011;49973;52.084;5.412;2023-05-19T11:59:51;4.63;;;1.40;;
61911;SDS011;49973;52.084;5.412;2023-05-19T12:02:22;2.92;;;1.30;;
61911;SDS011;49973;52.084;5.412;2023-05-19T12:04:53;5.82;;;1.05;;
61911;SDS011;49973;52.084;5.412;2023-05-19T12:07:23;9.85;;;1.90;;
61911;SDS011;49973;52.084;5.412;2023-05-19T12:09:53;3.40;;;1.38;;
61911;SDS011;49973;52.084;5.412;2023-05-19T12:12:22;1.90;;;1.10;;
61911;SDS011;49973;52.084;5.412;2023-05-19T12:14:51;3.83;;;1.73;;
61911;SDS011;49973;52.084;5.412;2023-05-19T12:17:20;4.68;;;1.27;;
61911;SDS011;49973;52.084;5.412;2023-05-19T12:19:50;6.47;;;1.73;;
61911;SDS011;49973;52.084;5.412;2023-05-19T12:22:19;5.47;;;1.48;;
61911;SDS011;49973;52.084;5.412;2023-05-19T12:24:49;3.83;;;1.65;;
61911;SDS011;49973;52.084;5.412;2023-05-19T12:27:19;6.30;;;1.50;;
61911;SDS011;49973;52.084;5.412;2023-05-19T12:29:50;3.67;;;1.60;;
61911;SDS011;49973;52.084;5.412;2023-05-19T12:32:21;3.05;;;1.00;;
61911;SDS011;49973;52.084;5.412;2023-05-19T12:34:51;5.70;;;1.40;;
61911;SDS011;49973;52.084;5.412;2023-05-19T12:37:20;4.38;;;1.30;;
61911;SDS011;49973;52.084;5.412;2023-05-19T12:39:50;7.47;;;1.50;;
61911;SDS011;49973;52.084;5.412;2023-05-19T12:42:21;4.65;;;1.73;;
61911;SDS011;49973;52.084;5.412;2023-05-19T12:44:50;6.93;;;1.90;;
61911;SDS011;49973;52.084;5.412;2023-05-19T12:47:21;5.22;;;1.55;;
61911;SDS011;49973;52.084;5.412;2023-05-19T12:49:59;4.95;;;1.63;;
61911;SDS011;49973;52.084;5.412;2023-05-19T12:52:29;8.98;;;1.50;;
61911;SDS011;49973;52.084;5.412;2023-05-19T12:55:03;3.03;;;1.40;;
61911;SDS011;49973;52.084;5.412;2023-05-19T12:57:33;7.22;;;1.60;;
61911;SDS011;49973;52.084;5.412;2023-05-19T13:00:03;2.30;;;1.60;;
61911;SDS011;49973;52.084;5.412;2023-05-19T13:02:34;4.45;;;1.80;;
61911;SDS011;49973;52.084;5.412;2023-05-19T13:05:03;6.68;;;1.65;;
61911;SDS011;49973;52.084;5.412;2023-05-19T13:07:32;12.10;;;1.38;;
61911;SDS011;49973;52.084;5.412;2023-05-19T13:10:03;3.90;;;1.77;;
61911;SDS011;49973;52.084;5.412;2023-05-19T13:12:32;4.45;;;1.52;;
61911;SDS011;49973;52.084;5.412;2023-05-19T13:15:01;2.28;;;1.33;;
61911;SDS011;49973;52.084;5.412;2023-05-19T13:17:29;4.90;;;1.48;;
61911;SDS011;49973;52.084;5.412;2023-05-19T13:20:00;5.32;;;1.80;;
61911;SDS011;49973;52.084;5.412;2023-05-19T13:22:29;7.13;;;1.40;;
61911;SDS011;49973;52.084;5.412;2023-05-19T13:24:58;4.32;;;1.60;;
61911;SDS011;49973;52.084;5.412;2023-05-19T13:27:29;5.15;;;1.90;;
61911;SDS011;49973;52.084;5.412;2023-05-19T13:29:58;7.00;;;2.17;;
61911;SDS011;49973;52.084;5.412;2023-05-19T13:32:26;5.97;;;2.00;;
61911;SDS011;49973;52.084;5.412;2023-05-19T13:34:55;2.92;;;1.67;;
61911;SDS011;49973;52.084;5.412;2023-05-19T13:37:24;5.40;;;1.77;;
61911;SDS011;49973;52.084;5.412;2023-05-19T13:39:53;8.20;;;1.90;;
61911;SDS011;49973;52.084;5.412;2023-05-19T13:42:23;7.03;;;2.20;;
61911;SDS011;49973;52.084;5.412;2023-05-19T13:44:54;4.15;;;1.80;;
61911;SDS011;49973;52.084;5.412;2023-05-19T13:47:23;1.88;;;1.48;;
61911;SDS011;49973;52.084;5.412;2023-05-19T13:49:52;3.90;;;1.55;;
61911;SDS011;49973;52.084;5.412;2023-05-19T13:52:21;2.42;;;1.45;;
61911;SDS011;49973;52.084;5.412;2023-05-19T13:54:49;4.22;;;1.52;;
61911;SDS011;49973;52.084;5.412;2023-05-19T13:57:20;4.83;;;1.60;;
61911;SDS011;49973;52.084;5.412;2023-05-19T13:59:49;3.10;;;1.50;;
61911;SDS011;49973;52.084;5.412;2023-05-19T14:02:38;3.53;;;0.97;;
61911;SDS011;49973;52.084;5.412;2023-05-19T14:05:08;5.27;;;1.50;;
61911;SDS011;49973;52.084;5.412;2023-05-19T14:07:37;2.03;;;1.30;;
61911;SDS011;49973;52.084;5.412;2023-05-19T14:10:06;6.05;;;1.10;;
61911;SDS011;49973;52.084;5.412;2023-05-19T14:12:35;2.97;;;1.35;;
61911;SDS011;49973;52.084;5.412;2023-05-19T14:15:24;2.35;;;1.40;;
61911;SDS011;49973;52.084;5.412;2023-05-19T14:17:54;3.40;;;1.27;;
61911;SDS011;49973;52.084;5.412;2023-05-19T14:20:24;5.30;;;1.35;;
61911;SDS011;49973;52.084;5.412;2023-05-19T14:22:55;2.80;;;1.27;;
61911;SDS011;49973;52.084;5.412;2023-05-19T14:25:23;1.92;;;1.20;;
61911;SDS011;49973;52.084;5.412;2023-05-19T14:27:52;1.67;;;1.33;;
61911;SDS011;49973;52.084;5.412;2023-05-19T14:30:21;2.23;;;1.10;;
61911;SDS011;49973;52.084;5.412;2023-05-19T14:32:49;9.20;;;1.57;;
61911;SDS011;49973;52.084;5.412;2023-05-19T14:35:20;6.80;;;1.40;;
61911;SDS011;49973;52.084;5.412;2023-05-19T14:37:49;4.20;;;1.30;;
61911;SDS011;49973;52.084;5.412;2023-05-19T14:40:18;3.07;;;1.43;;
61911;SDS011;49973;52.084;5.412;2023-05-19T14:42:46;1.90;;;0.97;;
61911;SDS011;49973;52.084;5.412;2023-05-19T14:45:15;2.22;;;0.95;;
61911;SDS011;49973;52.084;5.412;2023-05-19T14:47:44;6.73;;;1.43;;
61911;SDS011;49973;52.084;5.412;2023-05-19T14:50:13;7.90;;;1.37;;
61911;SDS011;49973;52.084;5.412;2023-05-19T14:52:43;4.13;;;1.70;;
61911;SDS011;49973;52.084;5.412;2023-05-19T14:55:12;9.37;;;1.60;;
61911;SDS011;49973;52.084;5.412;2023-05-19T14:57:40;2.90;;;1.57;;
61911;SDS011;49973;52.084;5.412;2023-05-19T15:00:09;5.27;;;1.77;;
61911;SDS011;49973;52.084;5.412;2023-05-19T15:02:39;3.60;;;1.67;;
61911;SDS011;49973;52.084;5.412;2023-05-19T15:05:07;3.60;;;1.60;;
61911;SDS011;49973;52.084;5.412;2023-05-19T15:07:37;5.07;;;1.50;;
61911;SDS011;49973;52.084;5.412;2023-05-19T15:10:07;4.10;;;1.60;;